Albion, Ohio
Current Conditions -  °F | °C
As of 4:16 AM on Wednesday 28 Jan 2015 (Local Time) from KBJJ Reporting Station
Haze Haze  
Wind Chill: -21°   Ceiling: Unl
Heat Index: -21°   Visibility: 2.5mi
Dew Point: -22°   Wind: 0mph
Humidity: 87%   Direction: NA
Pressure: 30.23"   Gusts: NA
Location:  40.9441°N, 82.1006°W
Report Text: KBJJ 280916Z AUTO 00000KT 2 1/2SM BR CLR M21/M22 A3023 RMK AO2 T12061222 TSNO
Loading
Personal Weather Stations






























Interactive Weather Map New forecast layout! Learn more

10-Day Weather Forecast

Advertisements
Track Severe Weather on mobile